createdAt,value
2023-02-02T00:01:20.043Z,101659.84
2023-02-02T00:03:49.047Z,101668.56
2023-02-02T00:06:18.381Z,101664.19
2023-02-02T00:08:46.415Z,101655.47
2023-02-02T00:11:14.376Z,101641.56
2023-02-02T00:13:42.763Z,101625.78
2023-02-02T00:16:42.530Z,101638.09
2023-02-02T00:19:12.540Z,101621.47
2023-02-02T00:21:42.663Z,101609.22
2023-02-02T00:24:11.841Z,101609.22
2023-02-02T00:26:40.957Z,101607.53
2023-02-02T00:29:15.835Z,101583.09
2023-02-02T00:31:43.738Z,101584.00
2023-02-02T00:34:13.742Z,101570.00
2023-02-02T00:36:44.020Z,101576.97
2023-02-02T00:39:14.979Z,101570.91
2023-02-02T00:41:42.947Z,101565.63
2023-02-02T00:44:28.601Z,101563.03
2023-02-02T00:46:56.530Z,101560.41
2023-02-02T00:49:24.793Z,101548.16
2023-02-02T00:51:54.190Z,101555.16
2023-02-02T00:54:23.191Z,101555.16
2023-02-02T00:56:51.112Z,101552.53
2023-02-02T00:59:19.393Z,101563.91
2023-02-02T01:01:47.818Z,101552.53
2023-02-02T01:04:15.859Z,101563.91
2023-02-02T01:06:43.732Z,101558.59
2023-02-02T01:09:13.047Z,101548.09
2023-02-02T01:11:40.933Z,101548.94
2023-02-02T01:14:09.037Z,101548.06
2023-02-02T01:16:38.041Z,101548.03
2023-02-02T01:19:06.029Z,101549.78
2023-02-02T01:21:34.167Z,101547.16
2023-02-02T01:24:02.144Z,101534.88
2023-02-02T01:26:31.532Z,101558.47
2023-02-02T01:28:59.489Z,101567.16
2023-02-02T01:31:27.551Z,101556.72
2023-02-02T01:33:55.451Z,101574.16
2023-02-02T01:36:25.181Z,101585.50
2023-02-02T01:38:53.347Z,101578.50
2023-02-02T01:41:23.708Z,101590.75
2023-02-02T01:43:56.164Z,101597.72
2023-02-02T01:46:26.079Z,101597.66
2023-02-02T01:48:59.819Z,101598.59
2023-02-02T01:51:35.919Z,101606.44
2023-02-02T01:54:06.761Z,101620.44
2023-02-02T01:56:38.500Z,101613.38
2023-02-02T01:59:08.692Z,101626.56
2023-02-02T02:01:36.565Z,101626.50
2023-02-02T02:04:04.751Z,101630.88
2023-02-02T02:06:32.883Z,101628.25
2023-02-02T02:09:03.879Z,101636.16
2023-02-02T02:11:32.867Z,101616.97
2023-02-02T02:14:20.601Z,101632.72
2023-02-02T02:17:01.260Z,101639.72
2023-02-02T02:20:25.058Z,101634.47
2023-02-02T02:23:49.186Z,101638.00
2023-02-02T02:26:46.284Z,101635.34
2023-02-02T02:29:35.618Z,101625.72
2023-02-02T02:32:20.969Z,101623.97
2023-02-02T02:34:56.265Z,101617.81
2023-02-02T02:37:32.909Z,101615.13
2023-02-02T02:40:07.664Z,101606.34
2023-02-02T02:42:39.825Z,101617.72
2023-02-02T02:45:11.743Z,101605.41
2023-02-02T02:47:43.415Z,101600.16
2023-02-02T02:50:12.471Z,101602.78
2023-02-02T02:52:41.610Z,101621.94
2023-02-02T02:55:17.704Z,101613.19
2023-02-02T02:58:04.050Z,101617.56
2023-02-02T03:00:41.505Z,101606.19
2023-02-02T03:03:24.108Z,101621.00
2023-02-02T03:06:00.953Z,101613.97
2023-02-02T03:08:41.500Z,101625.34
2023-02-02T03:11:16.917Z,101624.34
2023-02-02T03:13:45.615Z,101628.75
2023-02-02T03:16:15.675Z,101638.34
2023-02-02T03:18:45.287Z,101641.00
2023-02-02T03:21:13.348Z,101627.94
2023-02-02T03:23:41.355Z,101685.69
2023-02-02T03:26:09.262Z,101720.72
2023-02-02T03:28:37.581Z,101788.31
2023-02-02T03:31:06.891Z,101837.41
2023-02-02T03:33:37.890Z,101869.94
2023-02-02T03:36:08.062Z,101898.00
2023-02-02T03:38:36.012Z,101925.19
2023-02-02T03:41:04.252Z,101953.28
2023-02-02T03:43:33.051Z,101962.09
2023-02-02T03:46:04.356Z,101970.88
2023-02-02T03:48:33.002Z,101963.00
2023-02-02T03:51:01.053Z,101963.88
2023-02-02T03:53:30.481Z,101955.97
2023-02-02T03:55:58.471Z,101970.81
2023-02-02T03:58:26.695Z,101927.91
2023-02-02T04:00:55.685Z,101930.53
2023-02-02T04:03:23.708Z,101934.03
2023-02-02T04:05:52.034Z,101920.00
2023-02-02T04:08:20.105Z,101905.13
2023-02-02T04:10:49.944Z,101888.50
2023-02-02T04:13:17.928Z,101885.84
2023-02-02T04:15:46.868Z,101868.34
2023-02-02T04:18:15.756Z,101870.09
2023-02-02T04:20:43.852Z,101860.47
2023-02-02T04:23:11.709Z,101844.69
2023-02-02T04:25:40.814Z,101840.31
2023-02-02T04:28:10.345Z,101793.03
2023-02-02T04:30:38.403Z,101804.44
2023-02-02T04:33:06.400Z,101799.16
2023-02-02T04:35:35.291Z,101798.28
2023-02-02T04:38:03.349Z,101786.94
2023-02-02T04:40:31.210Z,101775.56
2023-02-02T04:42:59.453Z,101739.69
2023-02-02T04:45:28.842Z,101723.06
2023-02-02T04:47:58.911Z,101716.94
2023-02-02T04:50:28.115Z,101719.56
2023-02-02T04:52:56.187Z,101711.69
2023-02-02T04:55:26.675Z,101708.19
2023-02-02T04:57:54.800Z,101709.06
2023-02-02T05:00:23.960Z,101685.44
2023-02-02T05:02:53.232Z,101684.59
2023-02-02T05:05:22.380Z,101665.31
2023-02-02T05:07:54.308Z,101662.72
2023-02-02T05:10:27.958Z,101663.56
2023-02-02T05:12:56.841Z,101672.34
2023-02-02T05:15:24.935Z,101644.31
2023-02-02T05:17:55.482Z,101658.34
2023-02-02T05:20:23.609Z,101654.84
2023-02-02T05:22:51.522Z,101646.09
2023-02-02T05:25:19.601Z,101655.72
2023-02-02T05:27:47.817Z,101668.81
2023-02-02T05:30:16.160Z,101662.72
2023-02-02T05:32:44.048Z,101653.09
2023-02-02T05:35:15.139Z,101648.72
2023-02-02T05:37:44.244Z,101659.22
2023-02-02T05:40:13.003Z,101654.84
2023-02-02T05:42:40.979Z,101640.81
2023-02-02T05:45:09.886Z,101630.34
2023-02-02T05:47:37.749Z,101633.84
2023-02-02T05:50:06.367Z,101637.34
2023-02-02T05:52:40.945Z,101639.97
2023-02-02T05:55:11.721Z,101639.97
2023-02-02T05:57:40.789Z,101641.72
2023-02-02T06:00:10.163Z,101653.09
2023-02-02T06:02:38.139Z,101653.09
2023-02-02T06:05:07.015Z,101648.72
2023-02-02T06:07:36.454Z,101630.34
2023-02-02T06:10:04.819Z,101632.97
2023-02-02T06:12:32.830Z,101608.47
2023-02-02T06:15:15.077Z,101625.09
2023-02-02T06:17:43.177Z,101625.97
2023-02-02T06:20:12.022Z,101626.84
2023-02-02T06:22:41.213Z,101617.22
2023-02-02T06:25:15.458Z,101631.22
2023-02-02T06:27:45.235Z,101632.09
2023-02-02T06:30:16.610Z,101618.09
2023-02-02T06:32:44.840Z,101614.59
2023-02-02T06:35:12.979Z,101630.34
2023-02-02T06:37:42.613Z,101637.34
2023-02-02T06:40:11.902Z,101632.94
2023-02-02T06:42:41.065Z,101637.31
2023-02-02T06:45:10.049Z,101623.34
2023-02-02T06:47:38.028Z,101648.69
2023-02-02T06:50:06.515Z,101633.84
2023-02-02T06:52:34.569Z,101641.69
2023-02-02T06:55:04.099Z,101646.06
2023-02-02T06:57:32.129Z,101649.56
2023-02-02T07:00:00.177Z,101644.31
2023-02-02T07:02:28.091Z,101638.19
2023-02-02T07:04:56.495Z,101658.31
2023-02-02T07:07:24.371Z,101643.44
2023-02-02T07:09:58.390Z,101621.59
2023-02-02T07:12:28.304Z,101653.94
2023-02-02T07:14:56.432Z,101663.56
2023-02-02T07:17:24.606Z,101660.06
2023-02-02T07:19:52.699Z,101653.94
2023-02-02T07:22:20.564Z,101675.81
2023-02-02T07:24:48.546Z,101667.06
2023-02-02T07:27:16.656Z,101676.69
2023-02-02T07:29:45.931Z,101674.06
2023-02-02T07:32:14.190Z,101685.44
2023-02-02T07:34:46.353Z,101683.69
2023-02-02T07:37:14.458Z,101694.19
2023-02-02T07:39:43.330Z,101695.06
2023-02-02T07:42:12.462Z,101680.19
2023-02-02T07:44:40.438Z,101683.69
2023-02-02T07:47:10.114Z,101686.31
2023-02-02T07:49:38.243Z,101696.78
2023-02-02T07:52:07.305Z,101683.66
2023-02-02T07:54:35.348Z,101695.03
2023-02-02T07:57:03.194Z,101695.91
2023-02-02T07:59:32.420Z,101704.66
2023-02-02T08:02:00.681Z,101711.66
2023-02-02T08:04:30.261Z,101719.53
2023-02-02T08:06:58.237Z,101701.16
2023-02-02T08:09:26.419Z,101714.25
2023-02-02T08:12:01.649Z,101712.50
2023-02-02T08:14:30.278Z,101717.75
2023-02-02T08:16:58.371Z,101713.38
2023-02-02T08:19:26.445Z,101705.53
2023-02-02T08:21:57.223Z,101709.88
2023-02-02T08:24:25.180Z,101723.88
2023-02-02T08:26:53.392Z,101730.00
2023-02-02T08:29:24.598Z,101732.63
2023-02-02T08:31:54.098Z,101721.25
2023-02-02T08:34:22.045Z,101741.41
2023-02-02T08:36:51.204Z,101735.25
2023-02-02T08:39:20.433Z,101730.88
2023-02-02T08:41:48.326Z,101737.84
2023-02-02T08:44:17.360Z,101729.13
2023-02-02T08:46:47.338Z,101739.59
2023-02-02T08:49:16.330Z,101737.84
2023-02-02T08:51:44.332Z,101738.72
2023-02-02T08:54:12.204Z,101747.47
2023-02-02T08:56:41.422Z,101763.19
2023-02-02T08:59:09.659Z,101744.81
2023-02-02T09:01:37.955Z,101730.81
2023-02-02T09:04:15.901Z,101745.66
2023-02-02T09:06:44.386Z,101751.78
2023-02-02T09:09:15.964Z,101749.16
2023-02-02T09:11:45.405Z,101761.41
2023-02-02T09:14:15.070Z,101766.59
2023-02-02T09:16:43.430Z,101766.56
2023-02-02T09:19:11.814Z,101763.13
2023-02-02T09:21:40.582Z,101768.28
2023-02-02T09:24:16.475Z,101768.34
2023-02-02T09:26:46.418Z,101766.56
2023-02-02T09:29:17.864Z,101763.91
2023-02-02T09:31:47.018Z,101745.50
2023-02-02T09:34:16.491Z,101747.31
2023-02-02T09:36:51.843Z,101760.44
2023-02-02T09:39:20.950Z,101770.03
2023-02-02T09:42:29.375Z,101765.66
2023-02-02T09:45:07.422Z,101781.34
2023-02-02T09:47:53.156Z,101787.47
2023-02-02T09:50:32.139Z,101796.22
2023-02-02T09:53:10.386Z,101795.28
2023-02-02T09:55:41.176Z,101796.16
2023-02-02T09:58:15.173Z,101793.59
2023-02-02T10:00:47.879Z,101783.06
2023-02-02T10:03:20.430Z,101769.91
2023-02-02T10:05:55.825Z,101777.78
2023-02-02T10:08:35.112Z,101782.09
2023-02-02T10:11:25.157Z,101794.31
2023-02-02T10:13:58.578Z,101785.38
2023-02-02T10:16:26.935Z,101799.28
2023-02-02T10:19:04.062Z,101801.84
2023-02-02T10:21:40.437Z,101807.09
2023-02-02T10:24:19.337Z,101792.28
2023-02-02T10:27:15.141Z,101799.16
2023-02-02T10:29:52.317Z,101796.72
2023-02-02T10:32:26.199Z,101800.16
2023-02-02T10:35:18.340Z,101811.56
2023-02-02T10:37:54.182Z,101807.50
2023-02-02T10:40:39.036Z,101830.16
2023-02-02T10:43:40.795Z,101820.56
2023-02-02T10:46:16.293Z,101827.53
2023-02-02T10:48:47.431Z,101822.31
2023-02-02T10:51:21.239Z,101819.63
2023-02-02T10:53:53.985Z,101814.38
2023-02-02T10:56:27.214Z,101832.84
2023-02-02T10:59:02.351Z,101825.81
2023-02-02T11:01:31.546Z,101827.47
2023-02-02T11:04:19.291Z,101837.13
2023-02-02T11:06:52.970Z,101838.13
2023-02-02T11:09:26.138Z,101845.09
2023-02-02T11:12:00.887Z,101846.84
2023-02-02T11:14:45.224Z,101851.19
2023-02-02T11:17:21.783Z,101846.75
2023-02-02T11:19:50.971Z,101845.03
2023-02-02T11:22:28.180Z,101854.69
2023-02-02T11:24:57.955Z,101854.66
2023-02-02T11:27:33.348Z,101859.91
2023-02-02T11:30:10.924Z,101854.78
2023-02-02T11:32:40.480Z,101867.88
2023-02-02T11:35:24.906Z,101868.84
2023-02-02T11:37:59.023Z,101875.03
2023-02-02T11:40:38.764Z,101868.06
2023-02-02T11:43:16.658Z,101879.38
2023-02-02T11:45:46.070Z,101866.25
2023-02-02T11:48:18.912Z,101869.66
2023-02-02T11:50:49.077Z,101877.50
2023-02-02T11:53:49.292Z,101855.66
2023-02-02T11:56:28.141Z,101845.22
2023-02-02T11:59:06.670Z,101856.66
2023-02-02T12:01:46.176Z,101830.31
2023-02-02T12:04:26.170Z,101842.56
2023-02-02T12:06:54.316Z,101866.09
2023-02-02T12:09:24.546Z,101859.97
2023-02-02T12:12:03.180Z,101857.44
2023-02-02T12:14:39.700Z,101858.31
2023-02-02T12:17:20.303Z,101860.19
2023-02-02T12:20:06.005Z,101854.91
2023-02-02T12:23:10.114Z,101862.69
2023-02-02T12:25:50.976Z,101854.88
2023-02-02T12:28:31.358Z,101848.75
2023-02-02T12:31:07.506Z,101855.72
2023-02-02T12:33:47.238Z,101859.31
2023-02-02T12:36:37.810Z,101855.81
2023-02-02T12:39:21.240Z,101868.03
2023-02-02T12:42:07.071Z,101860.19
2023-02-02T12:44:45.957Z,101863.69
2023-02-02T12:47:23.772Z,101854.06
2023-02-02T12:50:10.543Z,101853.16
2023-02-02T12:52:56.240Z,101848.78
2023-02-02T12:55:30.918Z,101838.22
2023-02-02T12:58:10.395Z,101840.84
2023-02-02T13:01:19.250Z,101835.59
2023-02-02T13:04:07.770Z,101817.19
2023-02-02T13:07:08.284Z,101811.91
2023-02-02T13:09:43.975Z,101813.66
2023-02-02T13:12:15.657Z,101818.91
2023-02-02T13:14:58.666Z,101808.31
2023-02-02T13:17:35.022Z,101821.47
2023-02-02T13:20:08.573Z,101822.31
2023-02-02T13:22:44.138Z,101832.84
2023-02-02T13:25:21.009Z,101835.50
2023-02-02T13:27:50.105Z,101830.34
2023-02-02T13:30:28.415Z,101832.09
2023-02-02T13:33:01.368Z,101828.63
2023-02-02T13:35:35.188Z,101826.88
2023-02-02T13:38:29.521Z,101834.72
2023-02-02T13:41:01.592Z,101804.16
2023-02-02T13:43:44.134Z,101821.66
2023-02-02T13:46:42.461Z,101808.50
2023-02-02T13:49:13.578Z,101810.25
2023-02-02T13:51:55.055Z,101803.19
2023-02-02T13:54:57.949Z,101817.22
2023-02-02T13:58:00.273Z,101828.63
2023-02-02T14:00:33.677Z,101819.81
2023-02-02T14:03:06.074Z,101807.63
2023-02-02T14:05:38.360Z,101819.03
2023-02-02T14:08:09.238Z,101805.00
2023-02-02T14:10:40.971Z,101811.06
2023-02-02T14:13:38.362Z,101811.03
2023-02-02T14:16:08.819Z,101805.81
2023-02-02T14:18:56.567Z,101798.78
2023-02-02T14:22:07.816Z,101802.28
2023-02-02T14:24:48.214Z,101791.72
2023-02-02T14:27:55.994Z,101786.38
2023-02-02T14:30:34.219Z,101779.34
2023-02-02T14:33:47.513Z,101783.75
2023-02-02T14:36:17.669Z,101777.56
2023-02-02T14:39:01.000Z,101791.56
2023-02-02T14:42:00.997Z,101760.91
2023-02-02T14:44:30.679Z,101789.72
2023-02-02T14:47:00.216Z,101784.44
2023-02-02T14:49:36.458Z,101781.81
2023-02-02T14:52:05.445Z,101795.78
2023-02-02T14:54:38.311Z,101789.63
2023-02-02T14:57:22.182Z,101799.19
2023-02-02T14:59:52.704Z,101779.00
2023-02-02T15:02:25.484Z,101783.41
2023-02-02T15:04:53.519Z,101799.94
2023-02-02T15:07:51.900Z,101787.72
2023-02-02T15:10:53.885Z,101790.34
2023-02-02T15:13:23.930Z,101783.41
2023-02-02T15:15:59.323Z,101796.50
2023-02-02T15:18:38.132Z,101792.13
2023-02-02T15:21:27.668Z,101808.78
2023-02-02T15:23:56.959Z,101794.78
2023-02-02T15:26:44.261Z,101802.66
2023-02-02T15:29:20.323Z,101805.25
2023-02-02T15:31:56.731Z,101808.75
2023-02-02T15:34:40.056Z,101810.56
2023-02-02T15:37:13.671Z,101810.53
2023-02-02T15:39:48.971Z,101808.78
2023-02-02T15:42:37.513Z,101817.59
2023-02-02T15:45:06.450Z,101821.13
2023-02-02T15:47:37.440Z,101821.13
2023-02-02T15:50:20.310Z,101826.38
2023-02-02T15:52:50.308Z,101828.09
2023-02-02T15:55:24.583Z,101829.88
2023-02-02T15:57:58.308Z,101822.88
2023-02-02T16:00:30.762Z,101841.28
2023-02-02T16:03:13.370Z,101829.91
2023-02-02T16:05:53.607Z,101827.28
2023-02-02T16:08:27.598Z,101835.19
2023-02-02T16:11:04.035Z,101843.09
2023-02-02T16:13:40.719Z,101845.75
2023-02-02T16:16:32.233Z,101848.38
2023-02-02T16:19:06.641Z,101841.44
2023-02-02T16:21:39.333Z,101840.50
2023-02-02T16:24:15.295Z,101847.53
2023-02-02T16:26:43.357Z,101843.19
2023-02-02T16:29:17.021Z,101843.09
2023-02-02T16:31:47.035Z,101836.09
2023-02-02T16:34:19.756Z,101815.97
2023-02-02T16:37:07.420Z,101845.72
2023-02-02T16:39:35.279Z,101851.88
2023-02-02T16:42:10.963Z,101847.44
2023-02-02T16:44:40.796Z,101836.06
2023-02-02T16:47:30.406Z,101820.28
2023-02-02T16:50:20.546Z,101826.38
2023-02-02T16:52:55.537Z,101834.28
2023-02-02T16:55:24.257Z,101830.75
2023-02-02T16:57:52.610Z,101824.56
2023-02-02T17:00:23.919Z,101825.50
2023-02-02T17:02:57.553Z,101822.81
2023-02-02T17:05:29.173Z,101825.44
2023-02-02T17:08:00.776Z,101826.34
2023-02-02T17:10:34.323Z,101814.03
2023-02-02T17:13:03.919Z,101799.06
2023-02-02T17:15:37.015Z,101798.19
2023-02-02T17:18:06.178Z,101796.38
2023-02-02T17:20:34.881Z,101792.91
2023-02-02T17:23:09.780Z,101793.72
2023-02-02T17:25:41.947Z,101772.63
2023-02-02T17:28:13.849Z,101778.78
2023-02-02T17:30:42.786Z,101780.56
2023-02-02T17:33:14.761Z,101782.31
2023-02-02T17:35:53.750Z,101771.75
2023-02-02T17:38:28.498Z,101749.00
2023-02-02T17:41:01.126Z,101769.13
2023-02-02T17:43:35.320Z,101770.84
2023-02-02T17:46:07.054Z,101769.09
2023-02-02T17:48:37.612Z,101776.13
2023-02-02T17:51:07.129Z,101775.22
2023-02-02T17:53:51.017Z,101777.81
2023-02-02T17:56:20.757Z,101765.53
2023-02-02T17:58:48.786Z,101777.81
2023-02-02T18:01:18.869Z,101780.53
2023-02-02T18:03:47.783Z,101776.09
2023-02-02T18:06:15.870Z,101773.47
2023-02-02T18:08:45.623Z,101777.84
2023-02-02T18:11:15.367Z,101771.69
2023-02-02T18:13:44.494Z,101775.22
2023-02-02T18:16:14.264Z,101771.69
2023-02-02T18:18:42.353Z,101758.56
2023-02-02T18:21:14.236Z,101764.69
2023-02-02T18:23:43.988Z,101755.06
2023-02-02T18:26:17.466Z,101767.31
2023-02-02T18:28:48.520Z,101773.44
2023-02-02T18:31:19.405Z,101775.13
2023-02-02T18:33:48.229Z,101778.63
2023-02-02T18:36:19.862Z,101769.03
2023-02-02T18:38:49.240Z,101772.50
2023-02-02T18:41:21.488Z,101773.41
2023-02-02T18:43:52.768Z,101776.94
2023-02-02T18:46:20.978Z,101748.91
2023-02-02T18:48:58.995Z,101775.16
2023-02-02T18:51:34.059Z,101772.53
2023-02-02T18:54:02.019Z,101783.91
2023-02-02T18:56:31.737Z,101783.91
2023-02-02T18:59:00.341Z,101776.81
2023-02-02T19:01:28.296Z,101760.22
2023-02-02T19:03:57.859Z,101777.72
2023-02-02T19:06:45.361Z,101778.56
2023-02-02T19:09:17.113Z,101762.75
2023-02-02T19:11:47.810Z,101749.72
2023-02-02T19:14:20.607Z,101762.81
2023-02-02T19:16:49.463Z,101759.31
2023-02-02T19:19:30.163Z,101740.03
2023-02-02T19:22:03.094Z,101745.34
2023-02-02T19:24:43.419Z,101757.59
2023-02-02T19:27:18.898Z,101751.44
2023-02-02T19:29:48.481Z,101745.25
2023-02-02T19:32:32.344Z,101760.13
2023-02-02T19:35:37.556Z,101764.50
2023-02-02T19:38:42.264Z,101760.13
2023-02-02T19:41:18.479Z,101758.38
2023-02-02T19:43:48.837Z,101745.22
2023-02-02T19:46:21.459Z,101748.81
2023-02-02T19:48:53.458Z,101761.78
2023-02-02T19:51:34.833Z,101764.47
2023-02-02T19:54:03.215Z,101775.88
2023-02-02T19:56:39.244Z,101776.72
2023-02-02T19:59:20.352Z,101759.16
2023-02-02T20:01:50.748Z,101771.47
2023-02-02T20:04:20.443Z,101773.22
2023-02-02T20:06:58.450Z,101764.44
2023-02-02T20:09:34.605Z,101783.72
2023-02-02T20:12:14.076Z,101790.75
2023-02-02T20:14:43.650Z,101787.22
2023-02-02T20:17:24.618Z,101789.81
2023-02-02T20:19:52.745Z,101800.41
2023-02-02T20:22:26.253Z,101785.47
2023-02-02T20:24:54.781Z,101789.75
2023-02-02T20:27:26.180Z,101768.78
2023-02-02T20:30:01.799Z,101777.56
2023-02-02T20:32:38.595Z,101796.78
2023-02-02T20:35:23.804Z,101796.75
2023-02-02T20:37:51.892Z,101801.13
2023-02-02T20:40:25.283Z,101797.63
2023-02-02T20:42:53.771Z,101801.09
2023-02-02T20:45:23.528Z,101796.72
2023-02-02T20:47:51.901Z,101780.88
2023-02-02T20:50:22.675Z,101766.81
2023-02-02T20:52:53.525Z,101775.63
2023-02-02T20:55:21.360Z,101787.88
2023-02-02T20:57:49.304Z,101794.91
2023-02-02T21:00:19.312Z,101792.31
2023-02-02T21:02:49.136Z,101804.69
2023-02-02T21:05:17.243Z,101794.13
2023-02-02T21:07:45.337Z,101786.16
2023-02-02T21:10:13.293Z,101787.06
2023-02-02T21:12:48.375Z,101779.22
2023-02-02T21:15:19.077Z,101773.00
2023-02-02T21:17:48.566Z,101763.47
2023-02-02T21:20:16.675Z,101789.66
2023-02-02T21:22:44.685Z,101783.47
2023-02-02T21:25:13.005Z,101775.63
2023-02-02T21:27:42.228Z,101799.28
2023-02-02T21:30:19.354Z,101786.97
2023-02-02T21:32:50.763Z,101763.38
2023-02-02T21:35:19.097Z,101790.50
2023-02-02T21:38:01.204Z,101764.22
2023-02-02T21:40:50.024Z,101767.53
2023-02-02T21:43:19.640Z,101775.41
2023-02-02T21:45:51.730Z,101801.78
2023-02-02T21:48:33.853Z,101785.88
2023-02-02T21:51:20.035Z,101776.22
2023-02-02T21:53:48.003Z,101791.25
2023-02-02T21:56:33.325Z,101806.03
2023-02-02T21:59:01.922Z,101799.97
2023-02-02T22:01:35.137Z,101791.09
2023-02-02T22:04:13.182Z,101788.50
2023-02-02T22:06:46.120Z,101790.25
2023-02-02T22:09:19.929Z,101791.91
2023-02-02T22:11:55.868Z,101766.53
2023-02-02T22:14:28.350Z,101798.00
2023-02-02T22:16:58.867Z,101805.91
2023-02-02T22:19:34.613Z,101792.78
2023-02-02T22:22:16.074Z,101791.97
2023-02-02T22:24:45.815Z,101791.09
2023-02-02T22:27:25.325Z,101800.78
2023-02-02T22:29:58.975Z,101801.63
2023-02-02T22:32:26.925Z,101815.53
2023-02-02T22:34:56.137Z,101807.84
2023-02-02T22:37:24.159Z,101825.31
2023-02-02T22:39:53.040Z,101835.00
2023-02-02T22:42:26.959Z,101847.28
2023-02-02T22:44:54.986Z,101865.81
2023-02-02T22:47:22.907Z,101874.56
2023-02-02T22:49:50.892Z,101908.88
2023-02-02T22:52:20.307Z,101926.47
2023-02-02T22:54:48.218Z,101960.78
2023-02-02T22:57:16.340Z,101975.66
2023-02-02T22:59:44.497Z,101981.00
2023-02-02T23:02:24.549Z,102005.63
2023-02-02T23:04:52.537Z,102033.78
2023-02-02T23:07:21.814Z,102042.50
2023-02-02T23:09:49.664Z,102050.44
2023-02-02T23:12:17.573Z,102059.19
2023-02-02T23:14:45.758Z,102053.97
2023-02-02T23:17:13.719Z,102074.13
2023-02-02T23:19:41.685Z,102088.16
2023-02-02T23:22:09.707Z,102103.13
2023-02-02T23:24:39.032Z,102100.50
2023-02-02T23:27:07.247Z,102114.59
2023-02-02T23:29:38.489Z,102124.28
2023-02-02T23:32:07.844Z,102104.06
2023-02-02T23:34:36.842Z,102103.16
2023-02-02T23:37:04.811Z,102112.81
2023-02-02T23:39:32.710Z,102115.47
2023-02-02T23:42:02.088Z,102117.22
2023-02-02T23:44:30.103Z,102116.28
2023-02-02T23:46:58.955Z,102122.50
2023-02-02T23:49:27.074Z,102131.31
2023-02-02T23:51:56.189Z,102128.66
2023-02-02T23:54:24.363Z,102141.78
2023-02-02T23:56:52.994Z,102150.63
2023-02-02T23:59:29.673Z,102161.97
